Terminal Aerodrome Forecast
Issued by NWS

Home | Current Version | Previous Version | Graphics & Text | Print | Product List | Glossary On
Versions: 1 2 3 4 5 6 7 8 9 10 11 12 13 14 15 16
000
FTUS43 KICT 162022 AAA
TAFSLN
TAF AMD
KSLN 162022Z 1620/1718 19011G22KT P6SM FEW250
     FM162300 17012KT P6SM FEW250
     FM170500 16007KT P6SM SCT200
     FM171400 27005KT P6SM BKN030=

USA.gov is the U.S. government's official web portal to all federal, state and local government web resources and services.